Time;durP1;ratioP1;P1;durP2;ratioP2;P2;SDS_P1;SDS_P2;PMS_P1;PMS_P2;Temp;Humidity;BMP_temperature;BMP_pressure;BME280_temperature;BME280_humidity;BME280_pressure;Samples;Min_cycle;Max_cycle;Signal;HPM_P1;HPM_P2
2023/02/22 06:54:04;;;;;;;15.15;7.85;;;;;;;;;;10599763;27;20447;-81
2023/02/22 06:59:07;;;;;;;12.57;7.68;;;;;;;;;;10599015;28;20020;-83
2023/02/22 07:04:08;;;;;;;10.63;6.88;;;;;;;;;;10598214;28;20047;-82
2023/02/22 07:09:09;;;;;;;;;;;;;;;;;;10599972;28;20074;-82
2023/02/22 07:14:10;;;;;;;14.57;8.27;;;;;;;;;;10600931;28;19983;-82
2023/02/22 07:19:11;;;;;;;10.95;7.40;;;;;;;;;;10599689;28;20039;-82
2023/02/22 07:24:12;;;;;;;16.80;10.45;;;;;;;;;;10598833;28;20042;-82
2023/02/22 07:29:13;;;;;;;15.63;10.05;;;;;;;;;;10597043;28;20477;-82
2023/02/22 07:34:14;;;;;;;14.88;9.85;;;;;;;;;;10598757;28;20059;-83
2023/02/22 07:39:15;;;;;;;9.02;6.53;;;;;;;;;;10599110;28;20020;-82
2023/02/22 07:44:17;;;;;;;;;;;;;;;;;;10596000;28;20016;-82
2023/02/22 07:49:18;;;;;;;11.77;8.75;;;;;;;;;;10605038;28;20001;-82
2023/02/22 07:54:19;;;;;;;;;;;;;;;;;;10597400;28;20477;-82
2023/02/22 07:59:20;;;;;;;32.90;11.55;;;;;;;;;;10594019;28;19953;-82
2023/02/22 08:04:21;;;;;;;7.50;5.78;;;;;;;;;;10566789;28;20057;-83
2023/02/22 08:09:22;;;;;;;8.75;6.63;;;;;;;;;;10560975;28;20024;-82
2023/02/22 08:14:23;;;;;;;10.45;7.03;;;;;;;;;;10554652;28;20103;-80
2023/02/22 08:19:24;;;;;;;;;;;;;;;;;;10549536;28;20207;-80
2023/02/22 08:24:25;;;;;;;10.07;7.55;;;;;;;;;;10549746;28;19904;-80
2023/02/22 08:29:32;;;;;;;10.55;7.63;;;;;;;;;;10553298;28;20073;-79
2023/02/22 08:34:33;;;;;;;7.82;5.72;;;;;;;;;;10550724;28;20473;-79
2023/02/22 08:39:34;;;;;;;11.50;7.35;;;;;;;;;;10546055;28;20058;-81
2023/02/22 08:44:36;;;;;;;9.25;6.18;;;;;;;;;;10547737;28;20024;-81
2023/02/22 08:49:37;;;;;;;10.40;7.50;;;;;;;;;;10546532;28;20374;-78
2023/02/22 08:54:38;;;;;;;;;;;;;;;;;;10548004;28;20024;-79
2023/02/22 08:59:39;;;;;;;;;;;;;;;;;;10547970;28;19908;-80
2023/02/22 09:04:40;;;;;;;17.98;12.80;;;;;;;;;;10552874;28;19904;-80
2023/02/22 09:09:45;;;;;;;10.48;7.05;;;;;;;;;;10569620;28;20024;-79
2023/02/22 09:14:46;;;;;;;14.95;10.10;;;;;;;;;;10547300;28;20032;-80
2023/02/22 09:19:46;;;;;;;;;;;;;;;;;;10548134;28;20064;-80
2023/02/22 09:24:48;;;;;;;19.98;14.25;;;;;;;;;;10545400;28;19904;-79
2023/02/22 09:29:49;;;;;;;;;;;;;;;;;;10547365;28;20031;-79
2023/02/22 09:34:51;;;;;;;9.00;6.80;;;;;;;;;;10546523;28;19910;-79
2023/02/22 09:39:52;;;;;;;12.30;9.57;;;;;;;;;;10548633;28;20048;-83
2023/02/22 09:45:15;;;;;;;10.40;7.45;;;;;;;;;;10552492;28;20020;-85
2023/02/22 09:50:17;;;;;;;9.07;6.70;;;;;;;;;;10555806;28;20504;-85
2023/02/22 09:55:36;;;;;;;9.02;7.40;;;;;;;;;;10555708;28;20362;-85
2023/02/22 10:00:38;;;;;;;10.32;8.15;;;;;;;;;;10551403;28;20034;-85
2023/02/22 10:05:41;;;;;;;9.95;7.90;;;;;;;;;;10554056;28;20020;-84
2023/02/22 10:10:44;;;;;;;9.20;6.88;;;;;;;;;;10553618;28;20138;-85
2023/02/22 10:16:04;;;;;;;9.38;7.78;;;;;;;;;;10552261;28;20437;-84
2023/02/22 10:21:17;;;;;;;11.75;8.38;;;;;;;;;;10564449;28;20044;-85
2023/02/22 10:26:20;;;;;;;9.85;7.18;;;;;;;;;;10559500;28;20024;-84
2023/02/22 10:31:25;;;;;;;8.80;7.30;;;;;;;;;;10550386;28;20049;-85
2023/02/22 10:36:26;;;;;;;13.02;8.63;;;;;;;;;;10550690;28;20035;-84
2023/02/22 10:41:29;;;;;;;8.45;6.57;;;;;;;;;;10551268;28;20032;-84
2023/02/22 10:46:32;;;;;;;10.68;7.80;;;;;;;;;;10556832;28;20016;-85
2023/02/22 10:51:33;;;;;;;10.27;7.70;;;;;;;;;;10554893;28;20549;-86
2023/02/22 10:56:34;;;;;;;9.98;7.90;;;;;;;;;;10550951;28;20095;-85
2023/02/22 11:01:36;;;;;;;9.32;7.32;;;;;;;;;;10571726;28;20044;-81
2023/02/22 11:06:38;;;;;;;12.32;9.00;;;;;;;;;;10555114;28;20020;-83
2023/02/22 11:11:40;;;;;;;9.00;7.22;;;;;;;;;;10554201;28;20066;-84
2023/02/22 11:16:49;;;;;;;10.52;8.90;;;;;;;;;;10560370;28;20085;-85
2023/02/22 11:21:55;;;;;;;12.23;8.20;;;;;;;;;;10556388;28;20039;-83
2023/02/22 11:27:01;;;;;;;10.55;8.25;;;;;;;;;;10558016;28;20020;-84
2023/02/22 11:32:12;;;;;;;11.05;8.68;;;;;;;;;;10564523;28;20052;-84
2023/02/22 11:37:16;;;;;;;14.18;11.20;;;;;;;;;;10576872;28;20058;-82
2023/02/22 11:42:22;;;;;;;10.70;8.95;;;;;;;;;;10584349;28;20430;-84
2023/02/22 11:47:24;;;;;;;15.35;10.82;;;;;;;;;;10559307;28;20016;-83
2023/02/22 11:52:29;;;;;;;10.15;7.22;;;;;;;;;;10558829;28;20477;-83
2023/02/22 11:57:36;;;;;;;9.40;7.55;;;;;;;;;;10558228;28;20028;-85
2023/02/22 12:02:41;;;;;;;9.65;6.93;;;;;;;;;;10559828;28;20096;-85
2023/02/22 12:07:42;;;;;;;9.68;6.93;;;;;;;;;;10562964;28;20474;-85
2023/02/22 12:12:55;;;;;;;9.55;6.97;;;;;;;;;;10562476;28;20490;-85
2023/02/22 12:18:00;;;;;;;11.05;8.40;;;;;;;;;;10558993;28;20024;-83
2023/02/22 12:23:01;;;;;;;15.55;10.18;;;;;;;;;;10557724;28;20126;-83
2023/02/22 12:28:23;;;;;;;12.18;9.13;;;;;;;;;;10558032;28;20036;-83
2023/02/22 12:33:26;;;;;;;10.32;7.93;;;;;;;;;;10560753;28;20031;-83
2023/02/22 12:38:39;;;;;;;10.25;7.93;;;;;;;;;;10559287;28;20028;-84
2023/02/22 12:43:59;;;;;;;10.02;7.10;;;;;;;;;;10558143;28;20425;-84
2023/02/22 12:49:03;;;;;;;6.97;5.28;;;;;;;;;;10560516;28;20127;-84
2023/02/22 12:54:12;;;;;;;11.82;8.20;;;;;;;;;;10577687;28;20044;-84
2023/02/22 12:59:18;;;;;;;10.82;6.60;;;;;;;;;;10555539;28;20126;-84
2023/02/22 13:04:19;;;;;;;9.23;7.20;;;;;;;;;;10558065;28;20023;-84
2023/02/22 13:09:25;;;;;;;7.60;5.65;;;;;;;;;;10555360;28;20107;-84
2023/02/22 13:14:38;;;;;;;8.23;5.15;;;;;;;;;;10553077;28;20020;-83
2023/02/22 13:19:39;;;;;;;6.40;4.32;;;;;;;;;;10555717;28;20021;-84
2023/02/22 13:24:40;;;;;;;7.75;4.72;;;;;;;;;;10553898;28;20316;-84
2023/02/22 13:29:43;;;;;;;9.13;5.88;;;;;;;;;;10554582;28;20032;-83
2023/02/22 13:34:44;;;;;;;9.05;4.82;;;;;;;;;;10552629;28;20050;-85
2023/02/22 13:39:45;;;;;;;6.80;4.65;;;;;;;;;;10552057;28;20035;-84
2023/02/22 13:44:56;;;;;;;9.57;5.45;;;;;;;;;;10554967;28;20020;-84
2023/02/22 13:50:01;;;;;;;8.65;5.07;;;;;;;;;;10554298;28;20058;-84
2023/02/22 13:55:09;;;;;;;11.13;4.30;;;;;;;;;;10556593;28;20032;-83
2023/02/22 14:00:17;;;;;;;4.82;3.70;;;;;;;;;;10553074;28;20024;-84
2023/02/22 14:05:34;;;;;;;5.97;4.32;;;;;;;;;;10555588;28;20031;-84
2023/02/22 14:10:54;;;;;;;7.60;5.22;;;;;;;;;;10563403;28;20209;-83
2023/02/22 14:16:01;;;;;;;7.13;5.23;;;;;;;;;;10553716;28;20394;-83
2023/02/22 14:21:08;;;;;;;6.93;4.65;;;;;;;;;;10553818;28;20040;-82
2023/02/22 14:26:15;;;;;;;6.55;4.75;;;;;;;;;;10555911;28;20073;-83
2023/02/22 14:31:18;;;;;;;7.88;4.43;;;;;;;;;;10556481;28;20032;-83
2023/02/22 14:36:21;;;;;;;5.60;3.75;;;;;;;;;;10555690;28;20056;-82
2023/02/22 14:41:25;;;;;;;6.20;3.97;;;;;;;;;;10557788;28;20024;-83
2023/02/22 14:46:27;;;;;;;7.30;4.80;;;;;;;;;;10577318;28;20024;-83
2023/02/22 14:51:38;;;;;;;4.55;3.13;;;;;;;;;;10556433;28;20079;-83
2023/02/22 14:56:43;;;;;;;5.05;3.40;;;;;;;;;;10557015;28;20093;-83
2023/02/22 15:01:46;;;;;;;7.43;4.40;;;;;;;;;;10559130;28;20079;-84
2023/02/22 15:06:48;;;;;;;6.40;4.65;;;;;;;;;;10560534;28;20161;-84
2023/02/22 15:11:54;;;;;;;7.60;6.15;;;;;;;;;;10564296;28;20025;-82
2023/02/22 15:16:57;;;;;;;11.73;7.18;;;;;;;;;;10575182;28;20020;-84
2023/02/22 15:21:59;;;;;;;6.97;3.90;;;;;;;;;;10560530;28;20111;-81
2023/02/22 15:27:04;;;;;;;7.65;4.05;;;;;;;;;;10555683;28;20482;-81
2023/02/22 15:32:38;;;;;;;7.80;4.60;;;;;;;;;;10555458;28;20100;-81
2023/02/22 15:37:40;;;;;;;8.60;4.55;;;;;;;;;;10529218;28;20062;-81
2023/02/22 15:42:45;;;;;;;8.13;6.25;;;;;;;;;;10552960;28;20028;-80
2023/02/22 15:47:49;;;;;;;5.68;4.63;;;;;;;;;;10551253;28;20055;-81
2023/02/22 15:53:13;;;;;;;6.97;4.70;;;;;;;;;;10552642;28;20036;-81
2023/02/22 15:58:14;;;;;;;5.47;3.80;;;;;;;;;;10553115;28;20466;-81
2023/02/22 16:03:17;;;;;;;6.45;5.20;;;;;;;;;;10552358;28;20028;-81
2023/02/22 16:08:23;;;;;;;7.13;5.97;;;;;;;;;;10554240;28;20020;-80
2023/02/22 16:13:25;;;;;;;6.53;4.07;;;;;;;;;;10553934;28;20056;-81
2023/02/22 16:18:37;;;;;;;8.98;5.95;;;;;;;;;;10553262;28;20421;-81
2023/02/22 16:23:52;;;;;;;9.48;6.05;;;;;;;;;;10552257;28;20020;-80
2023/02/22 16:28:55;;;;;;;7.43;5.93;;;;;;;;;;10551128;28;20081;-81
2023/02/22 16:33:56;;;;;;;9.15;6.72;;;;;;;;;;10555160;28;20028;-81
2023/02/22 16:38:57;;;;;;;7.63;5.30;;;;;;;;;;10580494;28;20036;-81
2023/02/22 16:44:06;;;;;;;8.25;5.30;;;;;;;;;;10550864;28;20132;-81
2023/02/22 16:49:09;;;;;;;5.68;4.00;;;;;;;;;;10552464;28;20013;-81
2023/02/22 16:54:12;;;;;;;7.88;6.35;;;;;;;;;;10551478;28;20028;-81
2023/02/22 16:59:15;;;;;;;7.45;5.95;;;;;;;;;;10550690;28;20497;-81
2023/02/22 17:04:18;;;;;;;11.10;7.75;;;;;;;;;;10551354;28;20489;-81
2023/02/22 17:09:19;;;;;;;7.30;5.60;;;;;;;;;;10549524;28;20458;-82
2023/02/22 17:14:27;;;;;;;9.52;6.07;;;;;;;;;;10550664;28;20024;-81
2023/02/22 17:19:28;;;;;;;7.13;4.53;;;;;;;;;;10551345;28;20032;-79
2023/02/22 17:24:29;;;;;;;6.85;5.40;;;;;;;;;;10545795;28;20031;-81
2023/02/22 17:29:30;;;;;;;6.05;3.90;;;;;;;;;;10550591;28;20020;-81
2023/02/22 17:34:31;;;;;;;5.18;4.05;;;;;;;;;;10544466;28;20080;-81
2023/02/22 17:39:32;;;;;;;7.05;4.85;;;;;;;;;;10547718;28;20022;-81
2023/02/22 17:44:34;;;;;;;7.50;6.00;;;;;;;;;;10545276;28;20055;-81
2023/02/22 17:49:35;;;;;;;5.80;4.68;;;;;;;;;;10545674;28;20032;-81
2023/02/22 17:54:36;;;;;;;7.18;4.80;;;;;;;;;;10544695;28;20052;-81
2023/02/22 17:59:37;;;;;;;8.20;4.68;;;;;;;;;;10548109;28;20024;-82
2023/02/22 18:04:39;;;;;;;8.50;6.20;;;;;;;;;;10545576;28;20035;-81
2023/02/22 18:09:40;;;;;;;6.93;5.97;;;;;;;;;;10548124;28;20028;-81
2023/02/22 18:14:42;;;;;;;12.50;10.00;;;;;;;;;;10547046;28;20073;-81
2023/02/22 18:19:43;;;;;;;9.23;7.82;;;;;;;;;;10544927;28;20089;-81
2023/02/22 18:24:44;;;;;;;10.27;9.18;;;;;;;;;;10547022;28;20024;-82
2023/02/22 18:29:45;;;;;;;10.27;8.35;;;;;;;;;;10569884;28;20015;-82
2023/02/22 18:34:46;;;;;;;10.93;9.55;;;;;;;;;;10545803;28;20119;-81
2023/02/22 18:39:47;;;;;;;6.45;5.75;;;;;;;;;;10546729;28;20020;-82
2023/02/22 18:44:48;;;;;;;8.25;6.75;;;;;;;;;;10545581;28;20070;-82
2023/02/22 18:49:49;;;;;;;10.73;7.85;;;;;;;;;;10546687;28;20071;-81
2023/02/22 18:54:50;;;;;;;7.47;6.53;;;;;;;;;;10548357;28;20063;-82
2023/02/22 18:59:51;;;;;;;10.73;7.38;;;;;;;;;;10544465;28;20020;-81
2023/02/22 19:04:53;;;;;;;10.23;8.80;;;;;;;;;;10543412;28;20032;-81
2023/02/22 19:09:54;;;;;;;6.43;5.60;;;;;;;;;;10544208;28;20046;-82
2023/02/22 19:14:56;;;;;;;13.10;11.63;;;;;;;;;;10543205;28;20024;-82
2023/02/22 19:19:58;;;;;;;13.43;9.68;;;;;;;;;;10543531;28;20114;-81
2023/02/22 19:25:00;;;;;;;20.13;17.55;;;;;;;;;;10542412;28;20445;-82
2023/02/22 19:30:02;;;;;;;21.52;18.73;;;;;;;;;;10541749;28;20055;-81
2023/02/22 19:35:05;;;;;;;12.13;10.85;;;;;;;;;;10541980;28;20027;-81
2023/02/22 19:40:08;;;;;;;18.27;15.85;;;;;;;;;;10542027;28;20028;-81
2023/02/22 19:45:09;;;;;;;16.85;15.02;;;;;;;;;;10545357;28;20086;-81
2023/02/22 19:50:10;;;;;;;22.20;19.23;;;;;;;;;;10541794;28;20032;-81
2023/02/22 19:55:11;;;;;;;13.75;11.10;;;;;;;;;;10541257;28;20509;-81
2023/02/22 20:00:22;;;;;;;16.15;14.05;;;;;;;;;;10546911;28;20028;-81
2023/02/22 20:05:23;;;;;;;20.42;18.27;;;;;;;;;;10550520;28;20363;-81
2023/02/22 20:10:24;;;;;;;21.23;18.48;;;;;;;;;;10550726;28;20039;-81
2023/02/22 20:15:26;;;;;;;18.13;16.23;;;;;;;;;;10551592;28;20025;-82
